• Join FlightAware (Why Join?)
  • Login
  • US Flag 
03:39AM EDT


 

Airport Tracker/Info


-or-


 

Live Flight TrackerFlight Track Log ✈ AAL362 ✈ 13-Apr-2013 ✈ KORD - KLGA

Flight Track Log - Related Links

Times and Time Zones

All times are in EDT time to prevent confusion due to time zone crossing. See the AAL362 flight status page for this flight to view local times or setup timezone preferences in your user account.

Time Position Orientation Groundspeed Altitude Reporting Facility
EDT Latitude Longitude Course Direction KTS MPH feet Rate Location/Type
03:59PM 42.0000 -87.9333 84° East 159 183 1,900  Level Chicago TRACON
04:00PM 42.0333 -87.9000 37° Northeast 225 259 3,400 1,920 Climbing Chicago TRACON
04:01PM 41.9529 -87.3959 95° East  Level FlightAware Approximate
04:01PM 42.1289 -87.7928 40° Northeast 276 318 6,800  Level Chicago Center
04:02PM 41.9407 -87.2285 96° East  Level FlightAware Approximate
04:02PM 42.1225 -87.6833 94° East 310 357 9,700  Level Chicago Center
04:03PM 41.9333 -87.0608 90° East  Level FlightAware Approximate
04:03PM 42.0878 -87.5625 111° Southeast 340 391 12,300  Level Chicago Center
04:04PM 41.9353 -86.8927 84° East  Level FlightAware Approximate
04:04PM 42.0522 -87.4339 110° East 361 415 14,000  Level Chicago Center
04:05PM 42.0086 -87.2856 112° Southeast 416 479 15,800 2,100 Climbing Chicago Center
04:06PM 41.9564 -87.1011 111° Southeast 437 503 18,400 2,160 Climbing Chicago Center
04:07PM 41.9464 -86.9339 95° East 450 518 20,300 1,860 Climbing Chicago Center
04:08PM 41.9494 -86.7619 89° East 461 531 22,300 1,680 Climbing Chicago Center
04:09PM 41.9489 -86.5986 90° East 471 542 23,800 1,260 Climbing Chicago Center
04:10PM 41.9531 -86.4197 88° East 481 554 24,900 540 Climbing Chicago Center
04:11PM 41.9553 -86.2411 89° East 479 551 25,000  Climbing Chicago Center
04:13PM 41.9369 -86.0253 96° East 485 558 25,000  Level Chicago Center
04:14PM 41.9219 -85.8461 96° East 483 556 25,000  Level Chicago Center
04:15PM 41.9044 -85.6664 97° East 482 555 25,000  Level Chicago Center
04:16PM 41.8875 -85.4861 97° East 483 556 25,000  Level Chicago Center
04:17PM 41.8692 -85.3058 98° East 483 556 25,000  Level Chicago Center
04:18PM 41.8522 -85.1253 97° East 482 555 25,000  Level Chicago Center
04:18PM 41.8411 -85.0125 97° East 478 550 25,000  Level Cleveland Center
04:19PM 41.8247 -84.8331 97° East 478 550 25,000  Level Cleveland Center
04:20PM 41.8042 -84.6533 99° East 478 550 25,000  Level Cleveland Center
04:21PM 41.7833 -84.4764 99° East 478 550 25,000  Level Cleveland Center
04:22PM 41.7789 -84.2953 92° East 478 550 25,000  Level Cleveland Center
04:23PM 41.7747 -84.1000 92° East 483 556 25,000  Level Cleveland Center
04:24PM 41.7736 -83.9217 90° East 483 556 25,000  Level Cleveland Center
04:25PM 41.7725 -83.7406 90° East 478 550 25,000  Level Cleveland Center
04:26PM 41.7692 -83.5567 91° East 483 556 25,000  Level Cleveland Center
04:27PM 41.7528 -83.3806 97° East 483 556 25,000  Level Cleveland Center
04:28PM 41.7358 -83.2128 98° East 488 562 25,000  Level Cleveland Center
04:29PM 41.7192 -83.0311 97° East 488 562 25,000  Level Cleveland Center
04:30PM 41.7000 -82.8469 98° East 488 562 25,000  Level Cleveland Center
04:31PM 41.6825 -82.6656 97° East 488 562 25,000  Level Cleveland Center
04:32PM 41.6628 -82.4842 98° East 493 567 25,000  Level Cleveland Center
04:33PM 41.6447 -82.3031 98° East 493 567 25,000  Level Cleveland Center
04:34PM 41.6225 -82.1025 98° East 487 560 25,000  Level Cleveland Center
04:35PM 41.6039 -81.9217 98° East 492 566 25,000  Level Cleveland Center
04:36PM 41.5831 -81.7378 99° East 492 566 25,000  Level Cleveland Center
04:37PM 41.5639 -81.5572 98° East 492 566 25,000  Level Cleveland Center
04:38PM 41.5403 -81.3739 100° East 492 566 25,000  Level Cleveland Center
04:39PM 41.5225 -81.2100 98° East 492 566 25,000  Level Cleveland Center
04:40PM 41.5047 -81.0294 97° East 492 566 25,000  Level Cleveland Center
04:41PM 41.4886 -80.8436 97° East 492 566 25,000  Level Cleveland Center
04:42PM 41.4722 -80.6608 97° East 498 573 25,000 600 Level Cleveland Center
04:43PM 41.4556 -80.4778 97° East 503 579 26,200 960 Climbing Cleveland Center
04:44PM 41.4386 -80.2894 97° East 503 579 27,000 900 Climbing Cleveland Center
04:45PM 41.4192 -80.0903 97° East 521 600 28,000 960 Climbing Cleveland Center
04:46PM 41.3969 -79.8689 98° East 536 617 29,000 480 Climbing Cleveland Center
04:47PM 41.3769 -79.6644 97° East 547 629 29,000  Level Cleveland Center
04:48PM 41.3606 -79.4794 97° East 552 635 29,000  Level Cleveland Center
04:49PM 41.3353 -79.2586 99° East 557 641 29,000  Level Cleveland Center
04:50PM 41.3161 -79.0544 97° East 557 641 29,000  Level Cleveland Center
04:51PM 41.2969 -78.8722 98° East 557 641 29,000  Level Cleveland Center
04:52PM 41.2750 -78.6711 98° East 557 641 29,000  Level Cleveland Center
04:54PM 41.2331 -78.2950 98° East 571 657 29,000  Level New York Center
04:55PM 41.2128 -78.1161 99° East 566 651 29,000  Level New York Center
04:56PM 41.1875 -77.9178 100° East 551 634 29,000 -120 Level New York Center
04:57PM 41.1636 -77.7222 99° East 544 626 28,800 -1,020 Descending New York Center
04:58PM 41.1372 -77.5292 100° East 538 619 27,000 -2,040 Descending New York Center
04:59PM 41.1097 -77.3172 100° East 533 613 24,700 -2,220 Descending New York Center
05:00PM 41.0844 -77.1275 100° East 528 608 22,700 -1,740 Descending New York Center
05:01PM 41.0589 -76.9433 100° East 523 602 21,300 -1,440 Descending New York Center
05:02PM 41.0367 -76.7681 99° East 510 587 19,900 -1,080 Descending New York Center
05:03PM 41.0056 -76.5947 103° East 492 566 19,200 -360 Descending New York Center
05:05PM 40.9449 -76.3892 111° Southeast  Level FlightAware Approximate
05:05PM 40.9275 -76.2694 111° Southeast 456 525 18,900  Level New York Center
05:06PM 40.8908 -76.1100 107° East 456 525 17,000 -1,860 Descending New York Center
05:07PM 40.8589 -75.9867 109° East 450 518 15,300 -1,860 Descending New York Center
05:08PM 40.8167 -75.8108 108° East 433 498 13,300 -1,200 Descending New York Center
05:09PM 40.7847 -75.6797 108° East 428 493 12,900 -720 Descending New York Center
05:10PM 40.7467 -75.5372 109° East 417 480 12,000 -900 Descending New York Center
05:11PM 40.7114 -75.3786 106° East 417 480 11,100 -900 Descending New York Center
05:12PM 40.6836 -75.2344 104° East 408 470 10,300 -600 Descending New York Center
05:13PM 40.6442 -75.1169 114° Southeast 401 461 10,000 -180 Descending New York Center
05:14PM 40.5747 -75.0169 132° Southeast 358 412 10,000  Level New York Center
05:15PM 40.5333 -74.8667 110° East 337 388 10,000 -120 Level New York TRACON
05:16PM 40.4833 -74.7500 119° Southeast 338 389 9,800 -540 Descending New York TRACON
05:17PM 40.4333 -74.6667 128° Southeast 321 369 9,000 -900 Descending New York TRACON
05:18PM 40.3500 -74.6000 149° Southeast 320 368 8,100 -540 Descending New York TRACON
05:19PM 40.3000 -74.5167 128° Southeast 325 374 8,000 -120 Descending New York TRACON
05:20PM 40.3167 -74.4000 79° East 322 371 7,900 -360 Descending New York TRACON
05:21PM 40.3450 -74.3464 55° Northeast 263 303 7,400 -900 Descending New York Center
05:22PM 40.4094 -74.2764 40° Northeast 263 303 6,400 -1,080 Descending New York Center
05:22PM 40.4333 -74.2500 40° Northeast 283 326 6,000 -1,140 Descending New York TRACON
05:23PM 40.5000 -74.1833 37° Northeast 278 320 4,900 -1,020 Descending New York TRACON
05:24PM 40.5500 -74.1167 45° Northeast 274 315 4,000 -480 Descending New York TRACON
05:25PM 40.6167 -74.0667 30° Northeast 258 297 4,000  Level New York TRACON
05:26PM 40.6667 -74.0333 27° Northeast 198 228 4,000  Level New York TRACON
05:27PM 40.7167 -74.0333 360° North 192 221 4,000  Level New York TRACON
05:28PM 40.7667 -74.0000 27° Northeast 197 227 4,000  Level New York TRACON
05:29PM 40.8167 -73.9667 27° Northeast 194 223 4,000  Level New York TRACON
05:30PM 40.8667 -73.9333 27° Northeast 197 227 4,000 -300 Level New York TRACON
05:31PM 40.9167 -73.9167 14° North 196 226 3,400 -540 Descending New York TRACON
05:32PM 40.9500 -73.8667 49° Northeast 203 234 3,000 -300 Descending New York TRACON
05:33PM 40.9500 -73.8000 90° East 207 238 2,800 -420 Descending New York TRACON
05:34PM 40.9167 -73.7500 131° Southeast 189 217 2,200 -600 Descending New York TRACON